^^
Station Historical Data
Daily Summary for January 26, 2017 Units:  Metric    English   Both
« Previous Day
Next Day »
Daily Weekly Monthly Yearly Custom
  High: Low: Average:
Temperature: 32.4 °C 18.6 °C 26.7 °C
Dew Point: 11 °C 1.1 °C 7.2 °C
Humidity: 57% 15% 34%
Wind Speed: 41.7km/h 4.7km/h 21.9km/h
Wind Gust: 45.1km/h - -
Wind- - SSW
Pressure: 1011.4 hPa 1006 hPa -
Precipitation: 0 mm    
Historical Graphs
 
 
Tabular Data for January 26, 2017
Time Temperature Dew Point Pressure Wind Wind Speed Wind Gust Humidity Rainfall Rate (Hourly) solar Conditions
12:51 30.7 °C 1.1 °C 1008.7 hPa SW 13 km/h 20.9 km/h 15% 0 mm 986.0 W/m2
12:56 30.7 °C 1.1 °C 1008.7 hPa SW 11.1 km/h 17.7 km/h 15% 0 mm 988.0 W/m2
13:00 30.8 °C 1.2 °C 1008.7 hPa SW 19.5 km/h 19.5 km/h 15% 0 mm 990.0 W/m2
13:11 30.9 °C 1.3 °C 1008.7 hPa SW 6.4 km/h 14.5 km/h 15% 0 mm 990.0 W/m2
13:53 31.5 °C 1.7 °C 1008.4 hPa SSW 9.7 km/h 20.9 km/h 15% 0 mm 974.0 W/m2
14:00 31.7 °C 1.9 °C 1008.4 hPa SSW 6.4 km/h 22.5 km/h 15% 0 mm 967.0 W/m2
14:11 31.8 °C 2 °C 1008.4 hPa SSW 11.1 km/h 20.9 km/h 15% 0 mm 956.0 W/m2
14:15 31.8 °C 2 °C 1008 hPa SSW 19.5 km/h 20.9 km/h 15% 0 mm 942.0 W/m2
14:37 31.8 °C 2.9 °C 1007.7 hPa SSW 4.7 km/h 14.5 km/h 16% 0 mm 918.0 W/m2
14:46 32.2 °C 3.2 °C 1007.7 hPa SSW 14.3 km/h 22.5 km/h 16% 0 mm 891.0 W/m2
14:56 32.2 °C 4.1 °C 1007.3 hPa South 14.3 km/h 24.1 km/h 17% 0 mm 875.0 W/m2
15:11 32 °C 5.5 °C 1007 hPa South 22.7 km/h 25.7 km/h 19% 0 mm 846.0 W/m2
15:21 32.4 °C 6.6 °C 1007 hPa South 28.8 km/h 32.2 km/h 20% 0 mm 821.0 W/m2
15:36 31.8 °C 6.8 °C 1006.7 hPa South 28.8 km/h 33.8 km/h 21% 0 mm 782.0 W/m2
15:51 31.4 °C 7.1 °C 1006.7 hPa SSW 25.9 km/h 35.4 km/h 22% 0 mm 738.0 W/m2
16:06 31.1 °C 6.9 °C 1006.3 hPa SSW 22.7 km/h 35.4 km/h 22% 0 mm 694.0 W/m2
16:11 31.1 °C 6.9 °C 1006.3 hPa SSW 22.7 km/h 38.6 km/h 22% 0 mm 682.0 W/m2
16:16 31 °C 6.8 °C 1006.3 hPa South 25.9 km/h 40.2 km/h 22% 0 mm 666.0 W/m2
16:26 30.5 °C 7.6 °C 1006 hPa SSW 22.7 km/h 38.6 km/h 24% 0 mm 633.0 W/m2
16:46 29.8 °C 8.2 °C 1006 hPa SW 41.7 km/h 43.5 km/h 26% 0 mm 580.0 W/m2
16:51 29.4 °C 8.4 °C 1006 hPa SW 35.2 km/h 45.1 km/h 27% 0 mm 545.0 W/m2
18:42 25.4 °C 9.7 °C 1007 hPa SSW 28.8 km/h 45.1 km/h 37% 0 mm 137.0 W/m2
18:58 24.8 °C 10.3 °C 1007.3 hPa SW 22.7 km/h 40.2 km/h 40% 0 mm 95.0 W/m2
19:14 24.2 °C 10.5 °C 1007.7 hPa SSW 32 km/h 41.8 km/h 42% 0 mm 49.0 W/m2
19:22 23.7 °C 10.7 °C 1008 hPa SW 22.7 km/h 33.8 km/h 44% 0 mm 19.0 W/m2
19:46 23.1 °C 10.8 °C 1008.4 hPa SSW 17.7 km/h 32.2 km/h 46% 0 mm 11.0 W/m2
20:07 21.8 °C 10.9 °C 1008.7 hPa SW 25.9 km/h 40.2 km/h 50% 0 mm 0.0 W/m2
20:17 21.6 °C 11 °C 1009 hPa SW 20.9 km/h 29 km/h 51% 0 mm 0.0 W/m2
20:24 21.6 °C 11 °C 1009 hPa SW 20.9 km/h 29 km/h 51% 0 mm 0.0 W/m2
20:32 20.9 °C 11 °C 1009.4 hPa SSW 25.9 km/h 33.8 km/h 53% 0 mm 0.0 W/m2
20:40 20.9 °C 11 °C 1009.4 hPa SSW 25.9 km/h 33.8 km/h 53% 0 mm 0.0 W/m2
20:55 20.4 °C 10.8 °C 1009.7 hPa SSW 30.6 km/h 32.2 km/h 54% 0 mm 0.0 W/m2
21:10 20.2 °C 10.6 °C 1010 hPa SSW 28.8 km/h 30.6 km/h 54% 0 mm 0.0 W/m2
21:23 19.8 °C 10.5 °C 1010.4 hPa SSW 27.4 km/h 33.8 km/h 55% 0 mm 0.0 W/m2
21:32 19.4 °C 10.1 °C 1010.4 hPa SSW 20.9 km/h 35.4 km/h 55% 0 mm 0.0 W/m2
21:42 19.1 °C 10.1 °C 1010.4 hPa SSW 32 km/h 33.8 km/h 56% 0 mm 0.0 W/m2
21:52 19 °C 10 °C 1010.7 hPa South 24.1 km/h 29 km/h 56% 0 mm 0.0 W/m2
22:01 18.8 °C 10.1 °C 1010.7 hPa SSW 17.7 km/h 25.7 km/h 57% 0 mm 0.0 W/m2
22:14 18.6 °C 9.9 °C 1011.4 hPa SSW 19.5 km/h 25.7 km/h 57% 0 mm 0.0 W/m2
Canyon Roadhouse, Fishriver Canyon, Namibia
Compliments of Weather Underground - 1.75 mb